sensor_id;sensor_type;location;lat;lon;timestamp;P1;durP1;ratioP1;P2;durP2;ratioP2
10882;SDS011;5494;51.796;10.952;2023-08-30T00:00:38;4.27;;;2.00;;
10882;SDS011;5494;51.796;10.952;2023-08-30T00:03:06;4.53;;;2.07;;
10882;SDS011;5494;51.796;10.952;2023-08-30T00:05:38;4.97;;;1.90;;
10882;SDS011;5494;51.796;10.952;2023-08-30T00:08:06;5.10;;;2.20;;
10882;SDS011;5494;51.796;10.952;2023-08-30T00:10:37;3.90;;;2.00;;
10882;SDS011;5494;51.796;10.952;2023-08-30T00:13:05;6.57;;;1.90;;
10882;SDS011;5494;51.796;10.952;2023-08-30T00:15:33;2.10;;;1.90;;
10882;SDS011;5494;51.796;10.952;2023-08-30T00:18:01;2.53;;;2.10;;
10882;SDS011;5494;51.796;10.952;2023-08-30T00:20:30;3.63;;;1.73;;
10882;SDS011;5494;51.796;10.952;2023-08-30T00:22:58;3.73;;;2.13;;
10882;SDS011;5494;51.796;10.952;2023-08-30T00:25:26;4.47;;;2.03;;
10882;SDS011;5494;51.796;10.952;2023-08-30T00:27:55;3.23;;;1.63;;
10882;SDS011;5494;51.796;10.952;2023-08-30T00:30:23;3.23;;;1.60;;
10882;SDS011;5494;51.796;10.952;2023-08-30T00:32:51;2.17;;;1.60;;
10882;SDS011;5494;51.796;10.952;2023-08-30T00:35:20;3.73;;;2.10;;
10882;SDS011;5494;51.796;10.952;2023-08-30T00:37:48;3.20;;;1.50;;
10882;SDS011;5494;51.796;10.952;2023-08-30T00:40:16;1.87;;;1.50;;
10882;SDS011;5494;51.796;10.952;2023-08-30T00:42:44;2.60;;;1.40;;
10882;SDS011;5494;51.796;10.952;2023-08-30T00:45:13;4.50;;;1.70;;
10882;SDS011;5494;51.796;10.952;2023-08-30T00:47:41;2.60;;;1.50;;
10882;SDS011;5494;51.796;10.952;2023-08-30T00:50:10;1.70;;;1.43;;
10882;SDS011;5494;51.796;10.952;2023-08-30T00:52:39;3.43;;;1.50;;
10882;SDS011;5494;51.796;10.952;2023-08-30T00:55:08;3.83;;;1.70;;
10882;SDS011;5494;51.796;10.952;2023-08-30T00:57:37;2.73;;;1.40;;
10882;SDS011;5494;51.796;10.952;2023-08-30T01:00:06;2.30;;;1.50;;
10882;SDS011;5494;51.796;10.952;2023-08-30T01:02:37;2.23;;;1.73;;
10882;SDS011;5494;51.796;10.952;2023-08-30T01:05:06;2.43;;;1.40;;
10882;SDS011;5494;51.796;10.952;2023-08-30T01:07:36;2.50;;;1.47;;
10882;SDS011;5494;51.796;10.952;2023-08-30T01:10:05;2.70;;;1.67;;
10882;SDS011;5494;51.796;10.952;2023-08-30T01:12:36;4.13;;;1.43;;
10882;SDS011;5494;51.796;10.952;2023-08-30T01:15:12;3.67;;;1.43;;
10882;SDS011;5494;51.796;10.952;2023-08-30T01:17:47;1.80;;;1.47;;
10882;SDS011;5494;51.796;10.952;2023-08-30T01:20:18;2.47;;;1.50;;
10882;SDS011;5494;51.796;10.952;2023-08-30T01:22:53;3.30;;;1.70;;
10882;SDS011;5494;51.796;10.952;2023-08-30T01:25:31;2.10;;;1.90;;
10882;SDS011;5494;51.796;10.952;2023-08-30T01:28:15;1.60;;;1.50;;
10882;SDS011;5494;51.796;10.952;2023-08-30T01:30:51;1.87;;;1.50;;
10882;SDS011;5494;51.796;10.952;2023-08-30T01:33:21;3.03;;;1.70;;
10882;SDS011;5494;51.796;10.952;2023-08-30T01:35:54;3.03;;;1.80;;
10882;SDS011;5494;51.796;10.952;2023-08-30T01:38:26;3.30;;;1.90;;
10882;SDS011;5494;51.796;10.952;2023-08-30T01:40:56;3.97;;;2.00;;
10882;SDS011;5494;51.796;10.952;2023-08-30T01:43:29;2.43;;;1.90;;
10882;SDS011;5494;51.796;10.952;2023-08-30T01:46:03;2.13;;;1.93;;
10882;SDS011;5494;51.796;10.952;2023-08-30T01:48:33;3.00;;;2.07;;
10882;SDS011;5494;51.796;10.952;2023-08-30T01:51:03;3.77;;;1.90;;
10882;SDS011;5494;51.796;10.952;2023-08-30T01:53:34;4.97;;;2.47;;
10882;SDS011;5494;51.796;10.952;2023-08-30T01:56:04;4.00;;;2.37;;
10882;SDS011;5494;51.796;10.952;2023-08-30T01:58:33;2.90;;;2.03;;
10882;SDS011;5494;51.796;10.952;2023-08-30T02:01:01;6.27;;;2.63;;
10882;SDS011;5494;51.796;10.952;2023-08-30T02:03:30;3.50;;;2.23;;
10882;SDS011;5494;51.796;10.952;2023-08-30T02:06:00;5.53;;;2.93;;
10882;SDS011;5494;51.796;10.952;2023-08-30T02:08:37;2.73;;;2.23;;
10882;SDS011;5494;51.796;10.952;2023-08-30T02:11:11;3.77;;;2.80;;
10882;SDS011;5494;51.796;10.952;2023-08-30T02:13:47;4.60;;;3.00;;
10882;SDS011;5494;51.796;10.952;2023-08-30T02:16:20;5.03;;;3.00;;
10882;SDS011;5494;51.796;10.952;2023-08-30T02:18:52;6.00;;;2.97;;
10882;SDS011;5494;51.796;10.952;2023-08-30T02:21:21;3.63;;;3.27;;
10882;SDS011;5494;51.796;10.952;2023-08-30T02:23:50;3.13;;;2.80;;
10882;SDS011;5494;51.796;10.952;2023-08-30T02:26:19;5.03;;;2.90;;
10882;SDS011;5494;51.796;10.952;2023-08-30T02:28:49;3.47;;;2.33;;
10882;SDS011;5494;51.796;10.952;2023-08-30T02:31:17;3.23;;;2.23;;
10882;SDS011;5494;51.796;10.952;2023-08-30T02:33:45;3.13;;;2.37;;
10882;SDS011;5494;51.796;10.952;2023-08-30T02:36:13;2.17;;;1.97;;
10882;SDS011;5494;51.796;10.952;2023-08-30T02:38:41;3.47;;;2.10;;
10882;SDS011;5494;51.796;10.952;2023-08-30T02:41:09;3.10;;;2.30;;
10882;SDS011;5494;51.796;10.952;2023-08-30T02:43:39;3.40;;;2.30;;
10882;SDS011;5494;51.796;10.952;2023-08-30T02:46:08;2.03;;;1.80;;
10882;SDS011;5494;51.796;10.952;2023-08-30T02:48:37;3.20;;;2.10;;
10882;SDS011;5494;51.796;10.952;2023-08-30T02:51:06;2.30;;;1.93;;
10882;SDS011;5494;51.796;10.952;2023-08-30T02:53:35;3.23;;;2.23;;
10882;SDS011;5494;51.796;10.952;2023-08-30T02:56:03;2.50;;;2.30;;
10882;SDS011;5494;51.796;10.952;2023-08-30T02:58:31;3.70;;;2.33;;
10882;SDS011;5494;51.796;10.952;2023-08-30T03:01:00;3.17;;;2.10;;
10882;SDS011;5494;51.796;10.952;2023-08-30T03:03:30;2.47;;;2.17;;
10882;SDS011;5494;51.796;10.952;2023-08-30T03:05:58;2.60;;;2.40;;
10882;SDS011;5494;51.796;10.952;2023-08-30T03:08:29;2.50;;;2.10;;
10882;SDS011;5494;51.796;10.952;2023-08-30T03:11:06;2.80;;;2.17;;
10882;SDS011;5494;51.796;10.952;2023-08-30T03:13:41;4.50;;;2.53;;
10882;SDS011;5494;51.796;10.952;2023-08-30T03:16:11;2.97;;;2.60;;
10882;SDS011;5494;51.796;10.952;2023-08-30T03:18:42;3.17;;;2.40;;
10882;SDS011;5494;51.796;10.952;2023-08-30T03:21:11;2.90;;;2.20;;
10882;SDS011;5494;51.796;10.952;2023-08-30T03:23:40;5.03;;;2.50;;
10882;SDS011;5494;51.796;10.952;2023-08-30T03:26:09;2.73;;;2.50;;
10882;SDS011;5494;51.796;10.952;2023-08-30T03:28:38;2.70;;;2.43;;
10882;SDS011;5494;51.796;10.952;2023-08-30T03:31:11;3.37;;;2.57;;
10882;SDS011;5494;51.796;10.952;2023-08-30T03:33:42;2.40;;;2.20;;
10882;SDS011;5494;51.796;10.952;2023-08-30T03:36:13;3.73;;;2.50;;
10882;SDS011;5494;51.796;10.952;2023-08-30T03:38:43;2.57;;;2.30;;
10882;SDS011;5494;51.796;10.952;2023-08-30T03:41:12;3.90;;;2.67;;
10882;SDS011;5494;51.796;10.952;2023-08-30T03:43:43;2.60;;;2.40;;
10882;SDS011;5494;51.796;10.952;2023-08-30T03:46:11;2.90;;;2.50;;
10882;SDS011;5494;51.796;10.952;2023-08-30T03:48:39;4.37;;;3.27;;
10882;SDS011;5494;51.796;10.952;2023-08-30T03:51:09;3.47;;;2.77;;
10882;SDS011;5494;51.796;10.952;2023-08-30T03:53:37;3.23;;;2.40;;
10882;SDS011;5494;51.796;10.952;2023-08-30T03:56:05;3.33;;;2.47;;
10882;SDS011;5494;51.796;10.952;2023-08-30T03:58:34;4.20;;;2.57;;
10882;SDS011;5494;51.796;10.952;2023-08-30T04:01:03;3.30;;;2.63;;
10882;SDS011;5494;51.796;10.952;2023-08-30T04:03:33;4.23;;;2.47;;
10882;SDS011;5494;51.796;10.952;2023-08-30T04:06:01;2.80;;;2.60;;
10882;SDS011;5494;51.796;10.952;2023-08-30T04:08:31;3.60;;;2.87;;
10882;SDS011;5494;51.796;10.952;2023-08-30T04:10:59;3.03;;;2.63;;
10882;SDS011;5494;51.796;10.952;2023-08-30T04:13:29;3.20;;;2.80;;
10882;SDS011;5494;51.796;10.952;2023-08-30T04:15:57;3.87;;;2.40;;
10882;SDS011;5494;51.796;10.952;2023-08-30T04:18:26;3.63;;;2.67;;
10882;SDS011;5494;51.796;10.952;2023-08-30T04:20:54;2.97;;;2.77;;
10882;SDS011;5494;51.796;10.952;2023-08-30T04:23:25;3.10;;;2.80;;
10882;SDS011;5494;51.796;10.952;2023-08-30T04:25:55;3.33;;;2.70;;
10882;SDS011;5494;51.796;10.952;2023-08-30T04:28:23;3.77;;;2.60;;
10882;SDS011;5494;51.796;10.952;2023-08-30T04:30:53;3.53;;;2.90;;
10882;SDS011;5494;51.796;10.952;2023-08-30T04:33:22;2.93;;;2.63;;
10882;SDS011;5494;51.796;10.952;2023-08-30T04:35:51;3.03;;;2.70;;
10882;SDS011;5494;51.796;10.952;2023-08-30T04:38:20;5.73;;;2.83;;
10882;SDS011;5494;51.796;10.952;2023-08-30T04:40:49;5.33;;;3.00;;
10882;SDS011;5494;51.796;10.952;2023-08-30T04:43:18;3.17;;;2.73;;
10882;SDS011;5494;51.796;10.952;2023-08-30T04:45:47;4.43;;;2.70;;
10882;SDS011;5494;51.796;10.952;2023-08-30T04:48:15;3.23;;;2.60;;
10882;SDS011;5494;51.796;10.952;2023-08-30T04:50:44;3.73;;;2.53;;
10882;SDS011;5494;51.796;10.952;2023-08-30T04:53:12;3.17;;;2.70;;
10882;SDS011;5494;51.796;10.952;2023-08-30T04:55:40;4.43;;;2.97;;
10882;SDS011;5494;51.796;10.952;2023-08-30T04:58:09;4.40;;;3.10;;
10882;SDS011;5494;51.796;10.952;2023-08-30T05:00:39;8.13;;;3.07;;
10882;SDS011;5494;51.796;10.952;2023-08-30T05:03:07;4.70;;;3.50;;
10882;SDS011;5494;51.796;10.952;2023-08-30T05:05:35;8.80;;;7.10;;
10882;SDS011;5494;51.796;10.952;2023-08-30T05:08:04;4.73;;;3.90;;
10882;SDS011;5494;51.796;10.952;2023-08-30T05:10:33;6.77;;;4.00;;
10882;SDS011;5494;51.796;10.952;2023-08-30T05:13:02;7.13;;;4.27;;
10882;SDS011;5494;51.796;10.952;2023-08-30T05:15:31;6.27;;;4.23;;
10882;SDS011;5494;51.796;10.952;2023-08-30T05:18:01;6.50;;;4.07;;
10882;SDS011;5494;51.796;10.952;2023-08-30T05:20:33;5.27;;;3.70;;
10882;SDS011;5494;51.796;10.952;2023-08-30T05:23:01;4.17;;;3.43;;
10882;SDS011;5494;51.796;10.952;2023-08-30T05:25:30;5.47;;;3.30;;
10882;SDS011;5494;51.796;10.952;2023-08-30T05:27:58;4.53;;;3.07;;
10882;SDS011;5494;51.796;10.952;2023-08-30T05:30:26;3.30;;;3.00;;
10882;SDS011;5494;51.796;10.952;2023-08-30T05:32:57;3.07;;;2.60;;
10882;SDS011;5494;51.796;10.952;2023-08-30T05:36:02;11.90;;;3.37;;
10882;SDS011;5494;51.796;10.952;2023-08-30T05:38:51;4.87;;;2.30;;
10882;SDS011;5494;51.796;10.952;2023-08-30T05:41:31;6.03;;;2.60;;
10882;SDS011;5494;51.796;10.952;2023-08-30T05:43:59;4.10;;;2.20;;
10882;SDS011;5494;51.796;10.952;2023-08-30T05:46:28;3.27;;;1.90;;
10882;SDS011;5494;51.796;10.952;2023-08-30T05:48:56;2.43;;;2.13;;
10882;SDS011;5494;51.796;10.952;2023-08-30T05:51:25;5.63;;;2.30;;
10882;SDS011;5494;51.796;10.952;2023-08-30T05:53:53;2.40;;;2.10;;
10882;SDS011;5494;51.796;10.952;2023-08-30T05:56:21;2.93;;;1.90;;
10882;SDS011;5494;51.796;10.952;2023-08-30T05:58:50;5.33;;;2.23;;
10882;SDS011;5494;51.796;10.952;2023-08-30T06:01:18;3.57;;;2.00;;
10882;SDS011;5494;51.796;10.952;2023-08-30T06:03:49;3.00;;;1.87;;
10882;SDS011;5494;51.796;10.952;2023-08-30T06:06:18;2.57;;;2.27;;
10882;SDS011;5494;51.796;10.952;2023-08-30T06:08:48;3.63;;;2.40;;
10882;SDS011;5494;51.796;10.952;2023-08-30T06:11:16;3.37;;;2.40;;
10882;SDS011;5494;51.796;10.952;2023-08-30T06:13:44;4.27;;;2.10;;
10882;SDS011;5494;51.796;10.952;2023-08-30T06:16:12;4.50;;;1.97;;
10882;SDS011;5494;51.796;10.952;2023-08-30T06:18:40;3.80;;;2.00;;
10882;SDS011;5494;51.796;10.952;2023-08-30T06:21:11;6.87;;;2.43;;
10882;SDS011;5494;51.796;10.952;2023-08-30T06:23:39;3.53;;;2.13;;
10882;SDS011;5494;51.796;10.952;2023-08-30T06:26:09;5.13;;;2.20;;
10882;SDS011;5494;51.796;10.952;2023-08-30T06:28:37;3.87;;;1.80;;
10882;SDS011;5494;51.796;10.952;2023-08-30T06:31:08;3.33;;;2.10;;
10882;SDS011;5494;51.796;10.952;2023-08-30T06:33:36;3.77;;;2.07;;
10882;SDS011;5494;51.796;10.952;2023-08-30T06:36:06;3.97;;;1.90;;
10882;SDS011;5494;51.796;10.952;2023-08-30T06:38:34;4.30;;;1.87;;
10882;SDS011;5494;51.796;10.952;2023-08-30T06:41:02;3.23;;;2.00;;
10882;SDS011;5494;51.796;10.952;2023-08-30T06:43:32;3.87;;;1.60;;
10882;SDS011;5494;51.796;10.952;2023-08-30T06:46:00;4.50;;;1.87;;
10882;SDS011;5494;51.796;10.952;2023-08-30T06:48:28;2.00;;;1.30;;
10882;SDS011;5494;51.796;10.952;2023-08-30T06:50:57;3.53;;;1.60;;
10882;SDS011;5494;51.796;10.952;2023-08-30T06:53:25;4.40;;;1.87;;
10882;SDS011;5494;51.796;10.952;2023-08-30T06:55:57;2.17;;;1.50;;
10882;SDS011;5494;51.796;10.952;2023-08-30T06:58:26;6.03;;;3.57;;
10882;SDS011;5494;51.796;10.952;2023-08-30T07:00:56;3.40;;;2.00;;
10882;SDS011;5494;51.796;10.952;2023-08-30T07:03:25;3.93;;;2.70;;
10882;SDS011;5494;51.796;10.952;2023-08-30T07:05:53;3.93;;;2.10;;
10882;SDS011;5494;51.796;10.952;2023-08-30T07:08:21;6.73;;;3.30;;
10882;SDS011;5494;51.796;10.952;2023-08-30T07:10:50;4.43;;;1.93;;
10882;SDS011;5494;51.796;10.952;2023-08-30T07:13:19;2.70;;;1.67;;
10882;SDS011;5494;51.796;10.952;2023-08-30T07:15:47;2.43;;;1.70;;
10882;SDS011;5494;51.796;10.952;2023-08-30T07:18:16;3.50;;;1.70;;
10882;SDS011;5494;51.796;10.952;2023-08-30T07:20:45;2.73;;;2.00;;
10882;SDS011;5494;51.796;10.952;2023-08-30T07:23:13;5.60;;;2.03;;
10882;SDS011;5494;51.796;10.952;2023-08-30T07:25:41;4.70;;;2.00;;
10882;SDS011;5494;51.796;10.952;2023-08-30T07:28:10;3.73;;;1.83;;
10882;SDS011;5494;51.796;10.952;2023-08-30T07:30:38;3.00;;;2.20;;
10882;SDS011;5494;51.796;10.952;2023-08-30T07:33:09;2.63;;;2.00;;
10882;SDS011;5494;51.796;10.952;2023-08-30T07:35:38;2.80;;;1.80;;
10882;SDS011;5494;51.796;10.952;2023-08-30T07:38:07;2.80;;;2.00;;
10882;SDS011;5494;51.796;10.952;2023-08-30T07:40:36;2.23;;;2.03;;
10882;SDS011;5494;51.796;10.952;2023-08-30T07:43:04;2.07;;;1.63;;
10882;SDS011;5494;51.796;10.952;2023-08-30T07:45:32;2.73;;;1.80;;
10882;SDS011;5494;51.796;10.952;2023-08-30T07:48:01;4.33;;;1.73;;
10882;SDS011;5494;51.796;10.952;2023-08-30T07:50:29;3.30;;;1.63;;
10882;SDS011;5494;51.796;10.952;2023-08-30T07:52:58;2.87;;;1.50;;
10882;SDS011;5494;51.796;10.952;2023-08-30T07:55:26;2.20;;;1.40;;
10882;SDS011;5494;51.796;10.952;2023-08-30T07:57:54;1.70;;;1.30;;
10882;SDS011;5494;51.796;10.952;2023-08-30T08:00:23;1.43;;;1.30;;
10882;SDS011;5494;51.796;10.952;2023-08-30T08:02:51;1.50;;;1.10;;
10882;SDS011;5494;51.796;10.952;2023-08-30T08:05:19;1.87;;;1.20;;
10882;SDS011;5494;51.796;10.952;2023-08-30T08:07:51;1.57;;;1.00;;
10882;SDS011;5494;51.796;10.952;2023-08-30T08:10:21;2.53;;;1.37;;
10882;SDS011;5494;51.796;10.952;2023-08-30T08:12:49;1.40;;;1.30;;
10882;SDS011;5494;51.796;10.952;2023-08-30T08:15:18;3.60;;;1.50;;
10882;SDS011;5494;51.796;10.952;2023-08-30T08:17:46;2.43;;;1.50;;
10882;SDS011;5494;51.796;10.952;2023-08-30T08:20:15;2.17;;;1.40;;
10882;SDS011;5494;51.796;10.952;2023-08-30T08:22:44;2.47;;;1.37;;
10882;SDS011;5494;51.796;10.952;2023-08-30T08:25:12;1.67;;;1.30;;
10882;SDS011;5494;51.796;10.952;2023-08-30T08:27:42;1.50;;;1.37;;
10882;SDS011;5494;51.796;10.952;2023-08-30T08:30:10;2.00;;;1.40;;
10882;SDS011;5494;51.796;10.952;2023-08-30T08:32:40;4.03;;;1.30;;
10882;SDS011;5494;51.796;10.952;2023-08-30T08:35:08;3.20;;;1.40;;
10882;SDS011;5494;51.796;10.952;2023-08-30T08:37:36;2.27;;;1.23;;
10882;SDS011;5494;51.796;10.952;2023-08-30T08:40:05;1.10;;;1.00;;
10882;SDS011;5494;51.796;10.952;2023-08-30T08:42:36;3.03;;;1.00;;
10882;SDS011;5494;51.796;10.952;2023-08-30T08:45:06;2.17;;;1.20;;
10882;SDS011;5494;51.796;10.952;2023-08-30T08:47:38;2.43;;;1.20;;
10882;SDS011;5494;51.796;10.952;2023-08-30T08:50:07;1.33;;;1.03;;
10882;SDS011;5494;51.796;10.952;2023-08-30T08:52:37;1.67;;;0.87;;
10882;SDS011;5494;51.796;10.952;2023-08-30T08:55:25;2.90;;;1.10;;
10882;SDS011;5494;51.796;10.952;2023-08-30T08:57:56;3.27;;;1.03;;
10882;SDS011;5494;51.796;10.952;2023-08-30T09:00:27;1.27;;;0.93;;
10882;SDS011;5494;51.796;10.952;2023-08-30T09:02:58;2.23;;;0.70;;
10882;SDS011;5494;51.796;10.952;2023-08-30T09:05:31;1.67;;;1.00;;
10882;SDS011;5494;51.796;10.952;2023-08-30T09:08:00;1.70;;;1.10;;
10882;SDS011;5494;51.796;10.952;2023-08-30T09:10:31;1.20;;;1.03;;
10882;SDS011;5494;51.796;10.952;2023-08-30T09:13:00;1.30;;;0.97;;
10882;SDS011;5494;51.796;10.952;2023-08-30T09:15:32;2.03;;;1.00;;
10882;SDS011;5494;51.796;10.952;2023-08-30T09:18:01;2.40;;;1.10;;
10882;SDS011;5494;51.796;10.952;2023-08-30T09:20:29;1.00;;;0.83;;
10882;SDS011;5494;51.796;10.952;2023-08-30T09:22:57;1.17;;;0.97;;
10882;SDS011;5494;51.796;10.952;2023-08-30T09:25:26;6.40;;;1.47;;
10882;SDS011;5494;51.796;10.952;2023-08-30T09:27:59;1.90;;;0.90;;
10882;SDS011;5494;51.796;10.952;2023-08-30T09:30:27;1.80;;;0.93;;
10882;SDS011;5494;51.796;10.952;2023-08-30T09:33:02;1.93;;;1.00;;
10882;SDS011;5494;51.796;10.952;2023-08-30T09:35:31;1.63;;;1.00;;
10882;SDS011;5494;51.796;10.952;2023-08-30T09:37:59;2.20;;;1.07;;
10882;SDS011;5494;51.796;10.952;2023-08-30T09:40:27;1.37;;;1.00;;
10882;SDS011;5494;51.796;10.952;2023-08-30T09:42:57;1.40;;;1.30;;
10882;SDS011;5494;51.796;10.952;2023-08-30T09:45:39;1.43;;;1.27;;
10882;SDS011;5494;51.796;10.952;2023-08-30T09:48:09;4.13;;;1.50;;
10882;SDS011;5494;51.796;10.952;2023-08-30T09:50:37;3.97;;;1.40;;
10882;SDS011;5494;51.796;10.952;2023-08-30T09:53:11;1.77;;;1.07;;
10882;SDS011;5494;51.796;10.952;2023-08-30T09:55:45;5.17;;;1.77;;
10882;SDS011;5494;51.796;10.952;2023-08-30T09:58:16;3.50;;;1.23;;
10882;SDS011;5494;51.796;10.952;2023-08-30T10:00:47;2.00;;;1.07;;
10882;SDS011;5494;51.796;10.952;2023-08-30T10:03:17;2.93;;;1.27;;
10882;SDS011;5494;51.796;10.952;2023-08-30T10:05:56;3.67;;;1.07;;
10882;SDS011;5494;51.796;10.952;2023-08-30T10:08:27;2.97;;;1.37;;
10882;SDS011;5494;51.796;10.952;2023-08-30T10:10:58;2.53;;;1.47;;
10882;SDS011;5494;51.796;10.952;2023-08-30T10:13:28;2.80;;;1.40;;
10882;SDS011;5494;51.796;10.952;2023-08-30T10:15:58;2.20;;;1.53;;
10882;SDS011;5494;51.796;10.952;2023-08-30T10:18:32;2.00;;;1.70;;
10882;SDS011;5494;51.796;10.952;2023-08-30T10:21:09;2.23;;;1.60;;
10882;SDS011;5494;51.796;10.952;2023-08-30T10:23:40;1.77;;;1.13;;
10882;SDS011;5494;51.796;10.952;2023-08-30T10:26:10;2.30;;;1.60;;
10882;SDS011;5494;51.796;10.952;2023-08-30T10:28:38;2.17;;;1.50;;
10882;SDS011;5494;51.796;10.952;2023-08-30T10:31:08;3.03;;;1.53;;
10882;SDS011;5494;51.796;10.952;2023-08-30T10:33:47;2.50;;;1.20;;
10882;SDS011;5494;51.796;10.952;2023-08-30T10:36:20;4.00;;;1.60;;
10882;SDS011;5494;51.796;10.952;2023-08-30T10:38:50;2.10;;;1.53;;
10882;SDS011;5494;51.796;10.952;2023-08-30T10:41:20;2.57;;;1.60;;
10882;SDS011;5494;51.796;10.952;2023-08-30T10:43:50;2.70;;;1.70;;
10882;SDS011;5494;51.796;10.952;2023-08-30T10:46:31;2.40;;;1.77;;
10882;SDS011;5494;51.796;10.952;2023-08-30T10:49:12;2.23;;;1.60;;
10882;SDS011;5494;51.796;10.952;2023-08-30T10:51:41;1.90;;;1.70;;
10882;SDS011;5494;51.796;10.952;2023-08-30T10:54:11;2.13;;;1.80;;
10882;SDS011;5494;51.796;10.952;2023-08-30T10:56:47;2.37;;;1.60;;
10882;SDS011;5494;51.796;10.952;2023-08-30T10:59:21;4.10;;;1.73;;
10882;SDS011;5494;51.796;10.952;2023-08-30T11:01:51;1.53;;;1.37;;
10882;SDS011;5494;51.796;10.952;2023-08-30T11:04:23;2.10;;;1.87;;
10882;SDS011;5494;51.796;10.952;2023-08-30T11:06:51;5.10;;;1.73;;
10882;SDS011;5494;51.796;10.952;2023-08-30T11:09:22;3.53;;;1.63;;
10882;SDS011;5494;51.796;10.952;2023-08-30T11:11:51;2.53;;;2.20;;
10882;SDS011;5494;51.796;10.952;2023-08-30T11:14:19;4.73;;;2.20;;
10882;SDS011;5494;51.796;10.952;2023-08-30T11:16:48;2.73;;;2.03;;
10882;SDS011;5494;51.796;10.952;2023-08-30T11:19:16;3.70;;;2.10;;
10882;SDS011;5494;51.796;10.952;2023-08-30T11:21:45;3.70;;;2.40;;
10882;SDS011;5494;51.796;10.952;2023-08-30T11:24:14;4.33;;;2.37;;
10882;SDS011;5494;51.796;10.952;2023-08-30T11:26:42;2.17;;;1.97;;
10882;SDS011;5494;51.796;10.952;2023-08-30T11:29:11;2.80;;;2.50;;
10882;SDS011;5494;51.796;10.952;2023-08-30T11:31:39;2.53;;;2.33;;
10882;SDS011;5494;51.796;10.952;2023-08-30T11:34:10;3.00;;;2.20;;
10882;SDS011;5494;51.796;10.952;2023-08-30T11:36:38;4.90;;;2.37;;
10882;SDS011;5494;51.796;10.952;2023-08-30T11:39:07;2.73;;;2.10;;
10882;SDS011;5494;51.796;10.952;2023-08-30T11:41:37;5.83;;;3.40;;
10882;SDS011;5494;51.796;10.952;2023-08-30T11:44:10;3.30;;;3.00;;
10882;SDS011;5494;51.796;10.952;2023-08-30T11:46:38;3.77;;;3.20;;
10882;SDS011;5494;51.796;10.952;2023-08-30T11:49:06;3.57;;;3.27;;
10882;SDS011;5494;51.796;10.952;2023-08-30T11:51:35;4.57;;;3.40;;
10882;SDS011;5494;51.796;10.952;2023-08-30T11:54:04;4.40;;;3.57;;
10882;SDS011;5494;51.796;10.952;2023-08-30T11:56:35;4.30;;;3.83;;
10882;SDS011;5494;51.796;10.952;2023-08-30T11:59:04;3.33;;;3.03;;
10882;SDS011;5494;51.796;10.952;2023-08-30T12:01:33;4.13;;;3.43;;
10882;SDS011;5494;51.796;10.952;2023-08-30T12:04:08;4.30;;;3.87;;
10882;SDS011;5494;51.796;10.952;2023-08-30T12:06:37;5.37;;;3.70;;
10882;SDS011;5494;51.796;10.952;2023-08-30T12:09:05;4.23;;;3.20;;
10882;SDS011;5494;51.796;10.952;2023-08-30T12:11:41;4.23;;;3.83;;
10882;SDS011;5494;51.796;10.952;2023-08-30T12:14:10;4.07;;;3.53;;
10882;SDS011;5494;51.796;10.952;2023-08-30T12:16:39;4.30;;;3.37;;
10882;SDS011;5494;51.796;10.952;2023-08-30T12:19:07;4.00;;;3.70;;
10882;SDS011;5494;51.796;10.952;2023-08-30T12:21:40;4.13;;;3.70;;
10882;SDS011;5494;51.796;10.952;2023-08-30T12:24:09;4.20;;;3.63;;
10882;SDS011;5494;51.796;10.952;2023-08-30T12:26:38;5.73;;;3.70;;
10882;SDS011;5494;51.796;10.952;2023-08-30T12:29:07;4.10;;;3.70;;
10882;SDS011;5494;51.796;10.952;2023-08-30T12:31:35;4.93;;;3.50;;
10882;SDS011;5494;51.796;10.952;2023-08-30T12:34:04;5.47;;;3.77;;
10882;SDS011;5494;51.796;10.952;2023-08-30T12:36:32;5.13;;;4.37;;
10882;SDS011;5494;51.796;10.952;2023-08-30T12:39:00;4.10;;;3.57;;
10882;SDS011;5494;51.796;10.952;2023-08-30T12:41:28;5.90;;;4.00;;
10882;SDS011;5494;51.796;10.952;2023-08-30T12:43:57;4.47;;;3.67;;
10882;SDS011;5494;51.796;10.952;2023-08-30T12:46:27;3.97;;;3.67;;
10882;SDS011;5494;51.796;10.952;2023-08-30T12:48:55;4.33;;;3.90;;
10882;SDS011;5494;51.796;10.952;2023-08-30T12:51:25;3.40;;;3.10;;
10882;SDS011;5494;51.796;10.952;2023-08-30T12:53:53;4.70;;;3.30;;
10882;SDS011;5494;51.796;10.952;2023-08-30T12:56:21;5.90;;;3.63;;
10882;SDS011;5494;51.796;10.952;2023-08-30T12:58:49;4.47;;;4.07;;
10882;SDS011;5494;51.796;10.952;2023-08-30T13:01:21;4.70;;;3.80;;
10882;SDS011;5494;51.796;10.952;2023-08-30T13:03:52;4.50;;;4.10;;
10882;SDS011;5494;51.796;10.952;2023-08-30T13:06:20;4.20;;;3.80;;
10882;SDS011;5494;51.796;10.952;2023-08-30T13:08:48;6.20;;;4.27;;
10882;SDS011;5494;51.796;10.952;2023-08-30T13:11:16;4.40;;;4.00;;
10882;SDS011;5494;51.796;10.952;2023-08-30T13:13:44;5.73;;;3.73;;
10882;SDS011;5494;51.796;10.952;2023-08-30T13:16:12;4.73;;;3.27;;
10882;SDS011;5494;51.796;10.952;2023-08-30T13:18:41;4.00;;;3.70;;
10882;SDS011;5494;51.796;10.952;2023-08-30T13:21:10;4.43;;;3.90;;
10882;SDS011;5494;51.796;10.952;2023-08-30T13:23:39;6.17;;;4.53;;
10882;SDS011;5494;51.796;10.952;2023-08-30T13:26:07;5.30;;;4.80;;
10882;SDS011;5494;51.796;10.952;2023-08-30T13:28:36;4.40;;;3.90;;
10882;SDS011;5494;51.796;10.952;2023-08-30T13:31:06;4.30;;;3.90;;
10882;SDS011;5494;51.796;10.952;2023-08-30T13:33:35;4.87;;;4.17;;
10882;SDS011;5494;51.796;10.952;2023-08-30T13:36:08;4.00;;;3.70;;
10882;SDS011;5494;51.796;10.952;2023-08-30T13:38:38;4.20;;;3.80;;
10882;SDS011;5494;51.796;10.952;2023-08-30T13:41:06;4.00;;;3.60;;
10882;SDS011;5494;51.796;10.952;2023-08-30T13:43:34;4.57;;;4.17;;
10882;SDS011;5494;51.796;10.952;2023-08-30T13:46:02;4.63;;;4.10;;
10882;SDS011;5494;51.796;10.952;2023-08-30T13:48:30;4.90;;;3.90;;
10882;SDS011;5494;51.796;10.952;2023-08-30T13:50:59;4.40;;;4.00;;
10882;SDS011;5494;51.796;10.952;2023-08-30T13:53:28;4.13;;;3.33;;
10882;SDS011;5494;51.796;10.952;2023-08-30T13:55:56;4.33;;;3.77;;
10882;SDS011;5494;51.796;10.952;2023-08-30T13:58:24;4.67;;;4.27;;
10882;SDS011;5494;51.796;10.952;2023-08-30T14:00:52;4.70;;;4.10;;
10882;SDS011;5494;51.796;10.952;2023-08-30T14:03:20;4.80;;;4.37;;
10882;SDS011;5494;51.796;10.952;2023-08-30T14:05:48;5.50;;;4.23;;
10882;SDS011;5494;51.796;10.952;2023-08-30T14:08:17;4.37;;;3.97;;
10882;SDS011;5494;51.796;10.952;2023-08-30T14:10:46;5.07;;;3.80;;
10882;SDS011;5494;51.796;10.952;2023-08-30T14:13:14;4.30;;;3.90;;
10882;SDS011;5494;51.796;10.952;2023-08-30T14:15:42;4.30;;;3.90;;
10882;SDS011;5494;51.796;10.952;2023-08-30T14:18:11;4.50;;;4.07;;
10882;SDS011;5494;51.796;10.952;2023-08-30T14:20:40;3.97;;;3.57;;
10882;SDS011;5494;51.796;10.952;2023-08-30T14:23:09;4.17;;;3.80;;
10882;SDS011;5494;51.796;10.952;2023-08-30T14:25:41;4.03;;;3.73;;
10882;SDS011;5494;51.796;10.952;2023-08-30T14:28:10;5.13;;;3.87;;
10882;SDS011;5494;51.796;10.952;2023-08-30T14:30:38;4.30;;;3.90;;
10882;SDS011;5494;51.796;10.952;2023-08-30T14:33:06;10.77;;;5.53;;
10882;SDS011;5494;51.796;10.952;2023-08-30T14:35:35;5.03;;;4.23;;
10882;SDS011;5494;51.796;10.952;2023-08-30T14:38:09;14.50;;;7.17;;
10882;SDS011;5494;51.796;10.952;2023-08-30T14:40:38;69.33;;;13.23;;
10882;SDS011;5494;51.796;10.952;2023-08-30T14:43:06;26.63;;;7.70;;
10882;SDS011;5494;51.796;10.952;2023-08-30T14:45:35;8.20;;;4.57;;
10882;SDS011;5494;51.796;10.952;2023-08-30T14:48:04;6.03;;;3.83;;
10882;SDS011;5494;51.796;10.952;2023-08-30T14:50:35;4.87;;;4.37;;
10882;SDS011;5494;51.796;10.952;2023-08-30T14:53:03;4.43;;;4.10;;
10882;SDS011;5494;51.796;10.952;2023-08-30T14:55:32;4.90;;;4.50;;
10882;SDS011;5494;51.796;10.952;2023-08-30T14:58:01;5.27;;;4.13;;
10882;SDS011;5494;51.796;10.952;2023-08-30T15:00:29;6.37;;;4.50;;
10882;SDS011;5494;51.796;10.952;2023-08-30T15:03:01;5.50;;;4.30;;